createdAt,value
2023-04-17T00:00:03.691Z,98933.88
2023-04-17T00:01:50.301Z,98933.59
2023-04-17T00:03:19.769Z,98934.77
2023-04-17T00:05:00.681Z,98930.27
2023-04-17T00:06:34.164Z,98933.29
2023-04-17T00:08:07.415Z,98931.58
2023-04-17T00:09:40.492Z,98932.45
2023-04-17T00:11:10.040Z,98928.67
2023-04-17T00:12:46.734Z,98929.86
2023-04-17T00:14:10.816Z,98931.84
2023-04-17T00:15:53.166Z,98928.89
2023-04-17T00:17:33.808Z,98930.19
2023-04-17T00:19:07.201Z,98930.66
2023-04-17T00:21:02.205Z,98933.14
2023-04-17T00:22:38.369Z,98935.02
2023-04-17T00:24:03.077Z,98935.73
2023-04-17T00:25:26.581Z,98935.15
2023-04-17T00:27:01.402Z,98930.63
2023-04-17T00:28:42.428Z,98937.35
2023-04-17T00:30:18.629Z,98939.05
2023-04-17T00:31:48.575Z,98940.35
2023-04-17T00:33:21.723Z,98938.95
2023-04-17T00:34:44.073Z,98936.27
2023-04-17T00:36:19.453Z,98943.69
2023-04-17T00:38:04.753Z,98939.05
2023-04-17T00:39:37.948Z,98943.61
2023-04-17T00:41:19.323Z,98942.30
2023-04-17T00:42:59.940Z,98935.59
2023-04-17T00:44:40.328Z,98942.05
2023-04-17T00:46:18.279Z,98943.76
2023-04-17T00:47:54.343Z,98943.73
2023-04-17T00:49:27.502Z,98946.73
2023-04-17T00:51:12.111Z,98946.94
2023-04-17T00:52:33.863Z,98942.59
2023-04-17T00:54:07.275Z,98943.75
2023-04-17T00:55:31.809Z,98941.10
2023-04-17T00:57:08.309Z,98943.55
2023-04-17T00:58:54.378Z,98943.76
2023-04-17T01:00:34.672Z,98944.98
2023-04-17T01:02:20.334Z,98939.57
2023-04-17T01:04:06.214Z,98945.81
2023-04-17T01:05:42.040Z,98943.54
2023-04-17T01:07:17.003Z,98948.38
2023-04-17T01:09:11.227Z,98952.38
2023-04-17T01:10:57.644Z,98951.23
2023-04-17T01:12:33.501Z,98951.30
2023-04-17T01:14:28.152Z,98951.23
2023-04-17T01:16:01.785Z,98944.61
2023-04-17T01:17:48.879Z,98935.08
2023-04-17T01:19:33.371Z,98950.84
2023-04-17T01:20:58.505Z,98945.09
2023-04-17T01:22:39.142Z,98945.92
2023-04-17T01:24:24.311Z,98946.46
2023-04-17T01:26:11.913Z,98942.01
2023-04-17T01:27:52.595Z,98943.48
2023-04-17T01:29:37.621Z,98943.78
2023-04-17T01:31:13.439Z,98944.83
2023-04-17T01:32:54.773Z,98943.76
2023-04-17T01:34:27.435Z,98943.67
2023-04-17T01:36:08.980Z,98942.84
2023-04-17T01:37:42.363Z,98941.45
2023-04-17T01:39:27.411Z,98941.89
2023-04-17T01:41:19.359Z,98940.02
2023-04-17T01:43:03.746Z,98945.61
2023-04-17T01:44:44.688Z,98943.45
2023-04-17T01:46:25.427Z,98943.75
2023-04-17T01:48:11.139Z,98938.88
2023-04-17T01:49:47.180Z,98935.05
2023-04-17T01:51:20.406Z,98939.98
2023-04-17T01:53:01.460Z,98940.50
2023-04-17T01:54:54.301Z,98943.13
2023-04-17T01:56:18.796Z,98922.19
2023-04-17T01:57:53.289Z,98931.55
2023-04-17T01:59:26.182Z,98935.11
2023-04-17T02:01:15.498Z,98930.66
2023-04-17T02:03:00.975Z,98939.73
2023-04-17T02:04:25.189Z,98939.22
2023-04-17T02:06:06.536Z,98944.52
2023-04-17T02:09:30.935Z,98936.71
2023-04-17T02:11:16.310Z,98937.30
2023-04-17T02:13:01.538Z,98941.09
2023-04-17T02:14:28.933Z,98944.63
2023-04-17T02:16:22.727Z,98942.55
2023-04-17T02:18:08.028Z,98947.27
2023-04-17T02:19:53.772Z,98947.13
2023-04-17T02:21:26.448Z,98946.39
2023-04-17T02:23:20.251Z,98948.14
2023-04-17T02:25:05.374Z,98950.52
2023-04-17T02:26:58.559Z,98954.52
2023-04-17T02:28:31.902Z,98958.51
2023-04-17T02:30:17.808Z,98954.98
2023-04-17T02:31:54.022Z,98955.42
2023-04-17T02:33:15.672Z,98957.16
2023-04-17T02:35:11.165Z,98959.04
2023-04-17T02:36:47.152Z,98952.98
2023-04-17T02:38:20.635Z,98959.85
2023-04-17T02:40:04.116Z,98954.16
2023-04-17T02:41:39.724Z,98958.70
2023-04-17T02:43:13.708Z,98959.70
2023-04-17T02:44:49.314Z,98955.73
2023-04-17T02:46:33.995Z,98952.35
2023-04-17T02:48:15.644Z,98961.68
2023-04-17T02:50:00.610Z,98962.11
2023-04-17T02:51:45.843Z,98956.02
2023-04-17T02:53:29.120Z,98959.76
2023-04-17T02:55:18.825Z,98956.11
2023-04-17T02:57:10.034Z,98958.92
2023-04-17T02:58:45.781Z,98962.39
2023-04-17T03:00:30.737Z,98963.44
2023-04-17T03:02:05.185Z,98967.74
2023-04-17T03:03:53.402Z,98967.23
2023-04-17T03:05:41.804Z,98966.96
2023-04-17T03:07:17.211Z,98966.48
2023-04-17T03:08:53.493Z,98967.96
2023-04-17T03:10:26.780Z,98969.13
2023-04-17T03:12:00.751Z,98966.70
2023-04-17T03:13:45.873Z,98971.08
2023-04-17T03:15:31.829Z,98969.31
2023-04-17T03:17:23.418Z,98960.00
2023-04-17T03:19:12.115Z,98970.04
2023-04-17T03:20:57.236Z,98965.83
2023-04-17T03:22:38.090Z,98968.21
2023-04-17T03:24:23.882Z,98968.41
2023-04-17T03:26:06.811Z,98964.16
2023-04-17T03:27:40.376Z,98969.70
2023-04-17T03:29:14.362Z,98971.37
2023-04-17T03:30:59.438Z,98966.82
2023-04-17T03:32:32.886Z,98969.19
2023-04-17T03:34:15.096Z,98965.30
2023-04-17T03:35:48.498Z,98972.14
2023-04-17T03:37:33.478Z,98972.88
2023-04-17T03:39:06.611Z,98975.02
2023-04-17T03:40:51.495Z,98978.48
2023-04-17T03:42:32.944Z,98976.76
2023-04-17T03:44:25.623Z,98976.65
2023-04-17T03:46:11.705Z,98974.35
2023-04-17T03:47:44.979Z,98973.40
2023-04-17T03:49:29.137Z,98984.05
2023-04-17T03:51:03.059Z,98990.80
2023-04-17T03:52:55.118Z,98990.21
2023-04-17T03:54:35.989Z,98990.86
2023-04-17T03:56:12.678Z,98979.60
2023-04-17T03:57:48.677Z,98993.92
2023-04-17T03:59:13.299Z,98995.91
2023-04-17T04:00:56.876Z,98994.45
2023-04-17T04:02:34.261Z,98996.11
2023-04-17T04:04:18.408Z,98994.02
2023-04-17T04:05:55.873Z,98993.86
2023-04-17T04:07:29.526Z,98996.14
2023-04-17T04:09:06.120Z,98986.83
2023-04-17T04:10:39.552Z,98992.78
2023-04-17T04:12:24.960Z,98995.88
2023-04-17T04:14:00.955Z,98989.15
2023-04-17T04:15:34.427Z,98988.88
2023-04-17T04:17:15.319Z,98988.52
2023-04-17T04:18:56.748Z,98992.17
2023-04-17T04:20:36.828Z,98992.88
2023-04-17T04:22:34.243Z,98994.21
2023-04-17T04:24:20.283Z,98992.88
2023-04-17T04:26:07.353Z,98993.19
2023-04-17T04:27:57.066Z,98996.13
2023-04-17T04:29:42.883Z,98997.23
2023-04-17T04:31:26.258Z,98999.39
2023-04-17T04:33:16.168Z,98999.30
2023-04-17T04:35:09.631Z,99003.17
2023-04-17T04:36:50.846Z,99001.67
2023-04-17T04:38:32.073Z,99003.23
2023-04-17T04:40:19.809Z,98999.49
2023-04-17T04:41:51.429Z,99000.39
2023-04-17T04:43:37.541Z,98999.47
2023-04-17T04:45:23.240Z,99002.30
2023-04-17T04:46:56.864Z,99007.35
2023-04-17T04:48:26.256Z,99006.65
2023-04-17T04:50:09.400Z,99000.11
2023-04-17T04:51:33.810Z,99013.58
2023-04-17T04:53:10.455Z,99017.29
2023-04-17T04:55:01.036Z,99020.22
2023-04-17T04:56:34.400Z,99020.81
2023-04-17T04:58:15.255Z,99015.73
2023-04-17T04:59:57.106Z,99018.45
2023-04-17T05:01:44.743Z,99024.08
2023-04-17T05:03:18.064Z,99025.98
2023-04-17T05:05:02.222Z,99027.50
2023-04-17T05:06:38.915Z,99025.33
2023-04-17T05:08:20.392Z,99027.33
2023-04-17T05:10:07.663Z,99028.30
2023-04-17T05:11:54.390Z,99024.62
2023-04-17T05:13:42.102Z,99024.81
2023-04-17T05:15:32.501Z,99025.08
2023-04-17T05:17:09.942Z,99022.12
2023-04-17T05:18:58.152Z,99021.95
2023-04-17T05:20:40.297Z,99020.96
2023-04-17T05:22:27.535Z,99022.85
2023-04-17T05:24:20.844Z,99020.58
2023-04-17T05:26:11.546Z,99016.86
2023-04-17T05:27:37.484Z,99022.40
2023-04-17T05:29:13.533Z,99021.69
2023-04-17T05:30:59.402Z,99024.75
2023-04-17T05:32:53.900Z,99018.64
2023-04-17T05:34:36.316Z,99007.98
2023-04-17T05:36:01.574Z,99026.20
2023-04-17T05:37:51.203Z,99030.30
2023-04-17T05:39:13.279Z,99035.04
2023-04-17T05:40:35.162Z,99035.68
2023-04-17T05:41:57.518Z,99036.12
2023-04-17T05:43:42.679Z,99034.90
2023-04-17T05:45:28.027Z,99036.14
2023-04-17T05:47:04.325Z,99036.83
2023-04-17T05:48:37.292Z,99036.39
2023-04-17T05:50:18.940Z,99041.13
2023-04-17T05:51:53.115Z,99040.35
2023-04-17T05:53:38.269Z,99038.30
2023-04-17T05:55:23.764Z,99039.77
2023-04-17T05:57:11.363Z,99036.59
2023-04-17T05:58:45.102Z,99043.42
2023-04-17T06:00:24.754Z,99042.71
2023-04-17T06:01:48.902Z,99046.50
2023-04-17T06:03:36.515Z,99048.73
2023-04-17T06:05:24.212Z,99051.59
2023-04-17T06:07:09.794Z,99047.92
2023-04-17T06:08:58.075Z,99054.77
2023-04-17T06:10:33.539Z,99050.41
2023-04-17T06:12:24.529Z,99059.47
2023-04-17T06:14:03.085Z,99054.03
2023-04-17T06:15:44.960Z,99063.77
2023-04-17T06:17:20.970Z,99064.72
2023-04-17T06:18:57.017Z,99063.08
2023-04-17T06:20:41.999Z,99061.80
2023-04-17T06:22:27.601Z,99064.20
2023-04-17T06:23:57.190Z,99057.39
2023-04-17T06:25:19.087Z,99062.17
2023-04-17T06:27:04.704Z,99063.88
2023-04-17T06:28:40.168Z,99066.50
2023-04-17T06:30:05.400Z,99065.56
2023-04-17T06:31:53.501Z,99062.42
2023-04-17T06:33:38.114Z,99066.35
2023-04-17T06:35:15.209Z,99058.77
2023-04-17T06:37:11.460Z,99064.05
2023-04-17T06:38:47.580Z,99062.02
2023-04-17T06:40:21.571Z,99063.73
2023-04-17T06:42:08.204Z,99059.13
2023-04-17T06:43:36.991Z,99067.76
2023-04-17T06:45:26.997Z,99059.95
2023-04-17T06:46:48.702Z,99055.61
2023-04-17T06:48:24.540Z,99052.86
2023-04-17T06:50:00.717Z,99054.16
2023-04-17T06:51:41.675Z,99061.25
2023-04-17T06:53:26.887Z,99062.41
2023-04-17T06:55:10.165Z,99063.55
2023-04-17T06:56:43.761Z,99067.99
2023-04-17T06:58:17.153Z,99070.41
2023-04-17T06:59:50.614Z,99069.23
2023-04-17T07:01:31.406Z,99066.39
2023-04-17T07:03:25.182Z,99064.66
2023-04-17T07:07:01.133Z,99069.95
2023-04-17T07:08:55.681Z,99065.80
2023-04-17T07:10:31.136Z,99072.37
2023-04-17T07:12:18.850Z,99074.57
2023-04-17T07:13:54.661Z,99075.23
2023-04-17T07:15:30.442Z,99075.40
2023-04-17T07:17:06.332Z,99072.98
2023-04-17T07:18:39.645Z,99077.71
2023-04-17T07:20:13.221Z,99078.27
2023-04-17T07:21:54.120Z,99073.21
2023-04-17T07:23:27.434Z,99082.66
2023-04-17T07:25:12.746Z,99077.46
2023-04-17T07:26:45.940Z,99079.92
2023-04-17T07:28:39.941Z,99084.80
2023-04-17T07:30:16.064Z,99084.70
2023-04-17T07:31:49.527Z,99086.48
2023-04-17T07:33:25.564Z,99085.92
2023-04-17T07:35:07.125Z,99087.69
2023-04-17T07:37:00.480Z,99092.01
2023-04-17T07:38:45.437Z,99088.08
2023-04-17T07:40:30.572Z,99088.23
2023-04-17T07:42:18.071Z,99094.23
2023-04-17T07:44:03.437Z,99096.15
2023-04-17T07:45:37.578Z,99091.13
2023-04-17T07:47:23.933Z,99099.11
2023-04-17T07:48:57.748Z,99097.76
2023-04-17T07:50:33.315Z,99094.61
2023-04-17T07:52:00.159Z,99089.36
2023-04-17T07:53:45.441Z,99092.34
2023-04-17T07:55:26.582Z,99090.30
2023-04-17T07:56:49.415Z,99092.25
2023-04-17T07:58:23.090Z,99097.10
2023-04-17T08:00:17.272Z,99098.98
2023-04-17T08:01:50.773Z,99100.75
2023-04-17T08:03:24.488Z,99099.27
2023-04-17T08:05:10.026Z,99094.69
2023-04-17T08:06:36.153Z,99096.14
2023-04-17T08:08:09.727Z,99096.98
2023-04-17T08:10:03.418Z,99099.81
2023-04-17T08:11:57.920Z,99103.98
2023-04-17T08:13:29.656Z,99107.39
2023-04-17T08:15:03.486Z,99099.56
2023-04-17T08:16:48.876Z,99107.52
2023-04-17T08:18:21.890Z,99109.05
2023-04-17T08:19:53.492Z,99110.43
2023-04-17T08:21:38.478Z,99115.45
2023-04-17T08:23:23.710Z,99119.08
2023-04-17T08:25:09.612Z,99116.00
2023-04-17T08:26:43.031Z,99122.11
2023-04-17T08:28:20.820Z,99119.20
2023-04-17T08:30:07.185Z,99120.81
2023-04-17T08:31:40.480Z,99123.80
2023-04-17T08:33:23.006Z,99119.84
2023-04-17T08:34:47.085Z,99124.49
2023-04-17T08:36:28.330Z,99123.84
2023-04-17T08:38:15.007Z,99125.16
2023-04-17T08:39:38.839Z,99123.17
2023-04-17T08:41:05.663Z,99120.79
2023-04-17T08:42:50.601Z,99122.34
2023-04-17T08:44:21.958Z,99121.80
2023-04-17T08:45:59.042Z,99123.92
2023-04-17T08:47:23.291Z,99127.31
2023-04-17T08:49:18.167Z,99125.08
2023-04-17T08:51:03.576Z,99127.34
2023-04-17T08:52:48.682Z,99132.16
2023-04-17T08:54:21.986Z,99128.77
2023-04-17T08:55:57.983Z,99133.56
2023-04-17T08:57:49.181Z,99134.77
2023-04-17T08:59:23.966Z,99142.38
2023-04-17T09:00:46.055Z,99142.49
2023-04-17T09:02:10.374Z,99144.10
2023-04-17T09:04:00.541Z,99143.80
2023-04-17T09:05:45.920Z,99148.27
2023-04-17T09:07:31.106Z,99157.97
2023-04-17T09:09:05.098Z,99154.09
2023-04-17T09:10:38.741Z,99154.64
2023-04-17T09:12:01.136Z,99149.45
2023-04-17T09:13:35.342Z,99153.70
2023-04-17T09:15:08.812Z,99153.89
2023-04-17T09:16:57.132Z,99155.41
2023-04-17T09:18:32.880Z,99158.70
2023-04-17T09:20:09.152Z,99161.77
2023-04-17T09:21:54.610Z,99164.71
2023-04-17T09:23:18.666Z,99166.63
2023-04-17T09:25:12.609Z,99156.50
2023-04-17T09:26:46.378Z,99159.16
2023-04-17T09:28:10.264Z,99167.15
2023-04-17T09:29:43.694Z,99166.52
2023-04-17T09:31:17.234Z,99164.53
2023-04-17T09:32:50.609Z,99163.58
2023-04-17T09:34:16.859Z,99165.42
2023-04-17T09:35:50.987Z,99161.03
2023-04-17T09:37:35.886Z,99156.39
2023-04-17T09:39:20.822Z,99154.00
2023-04-17T09:40:54.400Z,99156.75
2023-04-17T09:42:23.559Z,99155.48
2023-04-17T09:43:55.712Z,99154.05
2023-04-17T09:45:17.857Z,99150.65
2023-04-17T09:46:58.574Z,99133.45
2023-04-17T09:48:20.279Z,99145.22
2023-04-17T09:50:04.547Z,99140.37
2023-04-17T09:51:44.865Z,99147.84
2023-04-17T09:53:27.152Z,99152.00
2023-04-17T09:54:52.133Z,99157.20
2023-04-17T09:56:47.089Z,99157.64
2023-04-17T09:58:17.008Z,99158.08
2023-04-17T09:59:48.718Z,99152.46
2023-04-17T10:01:13.204Z,99161.66
2023-04-17T10:03:03.314Z,99159.63
2023-04-17T10:04:39.212Z,99158.36
2023-04-17T10:06:34.044Z,99152.33
2023-04-17T10:08:16.889Z,99153.81
2023-04-17T10:10:11.144Z,99153.61
2023-04-17T10:11:32.794Z,99150.33
2023-04-17T10:13:06.986Z,99135.42
2023-04-17T10:14:48.219Z,99146.00
2023-04-17T10:16:21.534Z,99146.39
2023-04-17T10:17:43.543Z,99148.26
2023-04-17T10:19:28.610Z,99145.65
2023-04-17T10:21:15.197Z,99143.10
2023-04-17T10:23:09.033Z,99131.61
2023-04-17T10:24:42.644Z,99148.02
2023-04-17T10:26:16.039Z,99145.54
2023-04-17T10:27:59.144Z,99150.48
2023-04-17T10:29:32.025Z,99147.17
2023-04-17T10:31:26.054Z,99143.81
2023-04-17T10:33:13.980Z,99144.17
2023-04-17T10:35:09.265Z,99144.27
2023-04-17T10:36:51.953Z,99142.51
2023-04-17T10:38:27.078Z,99143.98
2023-04-17T10:40:04.202Z,99146.65
2023-04-17T10:41:48.945Z,99143.89
2023-04-17T10:43:23.607Z,99145.40
2023-04-17T10:45:08.895Z,99140.19
2023-04-17T10:46:44.677Z,99144.50
2023-04-17T10:48:06.708Z,99143.61
2023-04-17T10:49:35.811Z,99137.48
2023-04-17T10:51:17.427Z,99137.42
2023-04-17T10:52:42.184Z,99137.12
2023-04-17T10:54:18.140Z,99133.52
2023-04-17T10:55:51.909Z,99133.84
2023-04-17T10:57:13.549Z,99133.91
2023-04-17T10:58:50.113Z,99131.60
2023-04-17T11:00:31.150Z,99136.58
2023-04-17T11:02:21.686Z,99131.48
2023-04-17T11:03:54.806Z,99131.39
2023-04-17T11:05:39.762Z,99134.95
2023-04-17T11:07:24.823Z,99135.23
2023-04-17T11:09:09.852Z,99137.95
2023-04-17T11:10:41.398Z,99126.03
2023-04-17T11:12:26.408Z,99140.64
2023-04-17T11:14:14.226Z,99140.75
2023-04-17T11:15:58.579Z,99143.28
2023-04-17T11:17:31.918Z,99141.79
2023-04-17T11:19:17.992Z,99142.11
2023-04-17T11:20:51.718Z,99143.96
2023-04-17T11:22:25.395Z,99145.77
2023-04-17T11:23:59.322Z,99147.16
2023-04-17T11:25:23.547Z,99144.98
2023-04-17T11:26:59.485Z,99147.73
2023-04-17T11:28:32.984Z,99150.12
2023-04-17T11:30:09.047Z,99151.10
2023-04-17T11:31:44.717Z,99146.67
2023-04-17T11:33:18.492Z,99149.93
2023-04-17T11:35:08.161Z,99151.54
2023-04-17T11:36:41.470Z,99150.94
2023-04-17T11:38:17.538Z,99151.15
2023-04-17T11:39:51.679Z,99153.46
2023-04-17T11:41:23.697Z,99153.59
2023-04-17T11:43:11.131Z,99156.44
2023-04-17T11:44:44.460Z,99154.39
2023-04-17T11:46:25.451Z,99157.70
2023-04-17T11:48:02.201Z,99154.23
2023-04-17T11:49:37.810Z,99154.42
2023-04-17T11:51:13.864Z,99148.68
2023-04-17T11:52:47.855Z,99156.73
2023-04-17T11:54:29.032Z,99155.86
2023-04-17T11:56:02.697Z,99156.39
2023-04-17T11:57:50.540Z,99161.61
2023-04-17T11:59:24.094Z,99164.46
2023-04-17T12:00:57.555Z,99162.34
2023-04-17T12:02:21.673Z,99163.09
2023-04-17T12:03:50.615Z,99161.38
2023-04-17T12:05:24.165Z,99155.21
2023-04-17T12:07:14.494Z,99160.20
2023-04-17T12:08:50.353Z,99164.39
2023-04-17T12:10:14.436Z,99165.30
2023-04-17T12:11:56.890Z,99168.74
2023-04-17T12:13:42.176Z,99167.52
2023-04-17T12:15:23.231Z,99170.39
2023-04-17T12:16:56.589Z,99172.59
2023-04-17T12:18:29.654Z,99172.27
2023-04-17T12:20:24.343Z,99173.90
2023-04-17T12:22:04.794Z,99171.95
2023-04-17T12:23:50.992Z,99174.61
2023-04-17T12:25:27.178Z,99175.33
2023-04-17T12:27:09.155Z,99177.21
2023-04-17T12:28:58.222Z,99174.73
2023-04-17T12:30:51.681Z,99177.92
2023-04-17T12:32:32.492Z,99177.46
2023-04-17T12:34:18.180Z,99172.69
2023-04-17T12:35:51.912Z,99171.66
2023-04-17T12:37:25.609Z,99170.23
2023-04-17T12:38:52.436Z,99172.17
2023-04-17T12:40:14.331Z,99168.75
2023-04-17T12:42:00.002Z,99171.38
2023-04-17T12:43:35.742Z,99168.22
2023-04-17T12:45:20.210Z,99168.09
2023-04-17T12:47:15.296Z,99169.57
2023-04-17T12:49:00.788Z,99167.50
2023-04-17T12:50:46.402Z,99157.42
2023-04-17T12:52:08.551Z,99167.11
2023-04-17T12:53:53.863Z,99165.87
2023-04-17T12:55:38.526Z,99166.20
2023-04-17T12:57:11.531Z,99164.95
2023-04-17T12:58:45.354Z,99161.34
2023-04-17T13:00:07.275Z,99164.77
2023-04-17T13:01:43.629Z,99165.21
2023-04-17T13:03:17.898Z,99164.63
2023-04-17T13:05:03.303Z,99164.78
2023-04-17T13:06:27.105Z,99166.32
2023-04-17T13:08:22.216Z,99163.05
2023-04-17T13:09:58.167Z,99159.94
2023-04-17T13:11:33.751Z,99154.64
2023-04-17T13:13:07.267Z,99158.58
2023-04-17T13:14:43.510Z,99156.65
2023-04-17T13:16:17.208Z,99153.55
2023-04-17T13:17:58.092Z,99153.30
2023-04-17T13:19:31.850Z,99153.52
2023-04-17T13:21:06.544Z,99153.83
2023-04-17T13:23:01.198Z,99157.80
2023-04-17T13:24:54.619Z,99152.34
2023-04-17T13:26:25.804Z,99157.61
2023-04-17T13:28:09.218Z,99155.92
2023-04-17T13:29:43.010Z,99156.19
2023-04-17T13:31:28.311Z,99157.55
2023-04-17T13:35:09.075Z,99156.48
2023-04-17T13:36:44.934Z,99153.70
2023-04-17T13:38:30.398Z,99154.77
2023-04-17T13:40:05.474Z,99150.28
2023-04-17T13:41:26.976Z,99151.98
2023-04-17T13:43:08.816Z,99146.13
2023-04-17T13:44:44.385Z,99147.02
2023-04-17T13:46:18.210Z,99142.70
2023-04-17T13:48:13.294Z,99142.27
2023-04-17T13:49:51.997Z,99130.39
2023-04-17T13:51:32.462Z,99141.84
2023-04-17T13:53:04.354Z,99136.83
2023-04-17T13:54:26.196Z,99140.98
2023-04-17T13:56:00.010Z,99135.14
2023-04-17T13:57:53.236Z,99139.80
2023-04-17T13:59:28.717Z,99137.02
2023-04-17T14:00:57.910Z,99138.91
2023-04-17T14:02:33.649Z,99138.33
2023-04-17T14:04:17.354Z,99132.59
2023-04-17T14:05:53.898Z,99140.46
2023-04-17T14:07:29.946Z,99140.42
2023-04-17T14:08:54.204Z,99139.83
2023-04-17T14:10:39.232Z,99139.01
2023-04-17T14:12:34.167Z,99141.63
2023-04-17T14:14:07.746Z,99144.30
2023-04-17T14:15:54.924Z,99143.50
2023-04-17T14:17:27.839Z,99146.64
2023-04-17T14:19:14.685Z,99145.90
2023-04-17T14:21:00.576Z,99145.10
2023-04-17T14:22:45.601Z,99142.90
2023-04-17T14:24:19.122Z,99135.61
2023-04-17T14:25:52.911Z,99136.57
2023-04-17T14:27:28.424Z,99134.87
2023-04-17T14:29:01.948Z,99132.80
2023-04-17T14:30:23.969Z,99135.39
2023-04-17T14:31:58.201Z,99132.80
2023-04-17T14:33:31.773Z,99133.92
2023-04-17T14:34:55.819Z,99129.67
2023-04-17T14:36:31.259Z,99118.65
2023-04-17T14:38:13.105Z,99132.77
2023-04-17T14:39:49.542Z,99128.54
2023-04-17T14:41:34.892Z,99128.38
2023-04-17T14:43:11.773Z,99126.88
2023-04-17T14:44:45.630Z,99128.40
2023-04-17T14:46:27.928Z,99129.22
2023-04-17T14:48:13.268Z,99129.24
2023-04-17T14:49:47.192Z,99127.57
2023-04-17T14:51:31.950Z,99129.91
2023-04-17T14:53:04.371Z,99123.89
2023-04-17T14:54:28.150Z,99128.27
2023-04-17T14:56:03.710Z,99130.77
2023-04-17T14:57:25.833Z,99137.38
2023-04-17T14:59:06.506Z,99148.92
2023-04-17T15:00:32.894Z,99156.85
2023-04-17T15:01:55.690Z,99149.75
2023-04-17T15:03:50.285Z,99155.09
2023-04-17T15:05:28.192Z,99159.19
2023-04-17T15:07:10.650Z,99152.89
2023-04-17T15:09:05.182Z,99156.46
2023-04-17T15:10:50.801Z,99156.73
2023-04-17T15:12:33.191Z,99156.99
2023-04-17T15:13:57.487Z,99157.77
2023-04-17T15:15:22.024Z,99155.75
2023-04-17T15:16:51.317Z,99156.33
2023-04-17T15:18:27.182Z,99158.52
2023-04-17T15:20:09.269Z,99161.98
2023-04-17T15:21:33.250Z,99159.73
2023-04-17T15:23:19.746Z,99156.01
2023-04-17T15:25:05.207Z,99164.14
2023-04-17T15:26:27.387Z,99162.23
2023-04-17T15:27:49.062Z,99163.41
2023-04-17T15:29:21.832Z,99159.67
2023-04-17T15:30:45.898Z,99157.09
2023-04-17T15:32:14.796Z,99156.11
2023-04-17T15:34:00.209Z,99154.70
2023-04-17T15:35:33.206Z,99157.11
2023-04-17T15:37:07.191Z,99155.05
2023-04-17T15:38:48.344Z,99157.91
2023-04-17T15:40:19.810Z,99153.95
2023-04-17T15:44:25.177Z,99143.48
2023-04-17T15:46:18.991Z,99156.14
2023-04-17T15:48:04.039Z,99156.04
2023-04-17T15:49:33.130Z,99154.96
2023-04-17T15:51:15.244Z,99154.02
2023-04-17T15:53:05.178Z,99153.58
2023-04-17T15:54:26.948Z,99154.27
2023-04-17T15:56:20.374Z,99155.42
2023-04-17T15:57:56.045Z,99157.89
2023-04-17T15:59:41.185Z,99157.64
2023-04-17T16:01:26.493Z,99162.23
2023-04-17T16:03:19.765Z,99166.64
2023-04-17T16:05:05.384Z,99161.73
2023-04-17T16:06:29.677Z,99160.77
2023-04-17T16:08:01.293Z,99159.88
2023-04-17T16:09:46.516Z,99155.35
2023-04-17T16:11:20.714Z,99159.20
2023-04-17T16:13:15.168Z,99157.71
2023-04-17T16:14:50.759Z,99164.11
2023-04-17T16:16:27.177Z,99160.06
2023-04-17T16:18:00.871Z,99160.83
2023-04-17T16:19:36.515Z,99160.66
2023-04-17T16:21:06.223Z,99158.65
2023-04-17T16:22:39.655Z,99156.42
2023-04-17T16:24:13.149Z,99163.07
2023-04-17T16:25:57.995Z,99157.20
2023-04-17T16:27:48.044Z,99164.78
2023-04-17T16:29:12.193Z,99165.06
2023-04-17T16:30:47.750Z,99163.50
2023-04-17T16:32:32.826Z,99167.13
2023-04-17T16:34:06.410Z,99164.85
2023-04-17T16:35:39.728Z,99165.21
2023-04-17T16:37:24.840Z,99168.56
2023-04-17T16:39:19.181Z,99165.59
2023-04-17T16:41:11.168Z,99169.21
2023-04-17T16:42:44.668Z,99169.29
2023-04-17T16:44:14.502Z,99164.39
2023-04-17T16:45:38.411Z,99169.86
2023-04-17T16:48:39.960Z,99169.90
2023-04-17T16:50:14.157Z,99165.72
2023-04-17T16:51:35.864Z,99169.99
2023-04-17T16:52:58.052Z,99174.94
2023-04-17T16:54:39.110Z,99175.69
2023-04-17T16:56:24.486Z,99173.58
2023-04-17T16:58:09.242Z,99168.84
2023-04-17T16:59:54.555Z,99174.41
2023-04-17T17:01:28.211Z,99177.29
2023-04-17T17:02:50.569Z,99173.34
2023-04-17T17:04:20.237Z,99175.35
2023-04-17T17:05:46.488Z,99174.27
2023-04-17T17:07:16.298Z,99175.12
2023-04-17T17:08:49.856Z,99178.93
2023-04-17T17:10:23.541Z,99178.25
2023-04-17T17:11:57.039Z,99180.19
2023-04-17T17:13:19.043Z,99165.77
2023-04-17T17:14:45.687Z,99183.86
2023-04-17T17:16:21.587Z,99183.69
2023-04-17T17:17:43.630Z,99181.02
2023-04-17T17:19:05.939Z,99184.14
2023-04-17T17:20:35.267Z,99187.48
2023-04-17T17:21:57.344Z,99185.78
2023-04-17T17:23:32.213Z,99186.99
2023-04-17T17:25:14.258Z,99182.77
2023-04-17T17:26:37.065Z,99190.10
2023-04-17T17:28:01.865Z,99180.40
2023-04-17T17:29:33.616Z,99188.39
2023-04-17T17:30:56.231Z,99188.83
2023-04-17T17:32:29.492Z,99191.95
2023-04-17T17:35:53.083Z,99196.88
2023-04-17T17:37:25.229Z,99197.49
2023-04-17T17:39:00.248Z,99195.77
2023-04-17T17:40:29.646Z,99199.70
2023-04-17T17:41:51.568Z,99204.75
2023-04-17T17:43:13.477Z,99205.86
2023-04-17T17:44:49.176Z,99207.08
2023-04-17T17:46:34.303Z,99208.59
2023-04-17T17:48:21.663Z,99207.64
2023-04-17T17:49:57.009Z,99209.16
2023-04-17T17:51:37.927Z,99206.36
2023-04-17T17:53:26.388Z,99210.23
2023-04-17T17:54:53.795Z,99205.59
2023-04-17T17:56:38.649Z,99210.80
2023-04-17T17:58:24.619Z,99208.75
2023-04-17T17:59:51.660Z,99198.73
2023-04-17T18:01:16.329Z,99209.66
2023-04-17T18:03:02.128Z,99214.96
2023-04-17T18:04:36.238Z,99216.09
2023-04-17T18:06:21.737Z,99209.88
2023-04-17T18:08:02.707Z,99221.27
2023-04-17T18:09:36.582Z,99222.39
2023-04-17T18:11:22.130Z,99225.78
2023-04-17T18:13:05.202Z,99227.42
2023-04-17T18:14:42.117Z,99231.34
2023-04-17T18:16:27.191Z,99230.19
2023-04-17T18:18:01.224Z,99229.96
2023-04-17T18:19:42.117Z,99230.58
2023-04-17T18:21:23.462Z,99231.41
2023-04-17T18:22:59.143Z,99234.38
2023-04-17T18:24:32.928Z,99236.82
2023-04-17T18:26:26.629Z,99238.77
2023-04-17T18:28:11.904Z,99243.39
2023-04-17T18:29:47.418Z,99242.34
2023-04-17T18:31:21.859Z,99244.40
2023-04-17T18:32:44.730Z,99247.17
2023-04-17T18:34:30.593Z,99246.48
2023-04-17T18:36:06.649Z,99246.00
2023-04-17T18:37:47.780Z,99248.16
2023-04-17T18:39:21.663Z,99247.18
2023-04-17T18:41:02.614Z,99255.88
2023-04-17T18:42:26.822Z,99230.34
2023-04-17T18:44:10.329Z,99245.78
2023-04-17T18:47:58.320Z,99251.66
2023-04-17T18:49:30.076Z,99250.95
2023-04-17T18:51:15.484Z,99255.08
2023-04-17T18:53:00.748Z,99248.94
2023-04-17T18:54:30.708Z,99253.73
2023-04-17T18:56:16.248Z,99255.19
2023-04-17T18:57:52.508Z,99252.85
2023-04-17T18:59:26.387Z,99254.50
2023-04-17T19:01:13.416Z,99255.40
2023-04-17T19:02:55.592Z,99254.75
2023-04-17T19:04:31.636Z,99254.02
2023-04-17T19:06:14.284Z,99256.61
2023-04-17T19:08:00.122Z,99251.09
2023-04-17T19:09:31.627Z,99256.31
2023-04-17T19:11:25.415Z,99255.51
2023-04-17T19:13:20.252Z,99262.92
2023-04-17T19:15:10.679Z,99260.77
2023-04-17T19:16:47.454Z,99263.55
2023-04-17T19:18:32.656Z,99263.54
2023-04-17T19:20:08.832Z,99266.23
2023-04-17T19:21:41.044Z,99262.52
2023-04-17T19:23:20.622Z,99267.61
2023-04-17T19:24:42.109Z,99266.09
2023-04-17T19:26:09.169Z,99264.25
2023-04-17T19:27:43.246Z,99260.86